Hawks, Michigan
Current Conditions -  °F | °C
As of 6:14 PM on Thursday 27 Nov 2014 (Local Time) from KPZQ Reporting Station
Overcast Overcast  
Wind Chill:   Ceiling: 3400
Heat Index: 19°   Visibility: 10mi
Dew Point: 13°   Wind: 10mph
Humidity: 79%   Direction: 280°W
Pressure: 30.24"   Gusts: NA
Location:  45.3°N, 83.89°W
Report Text: KPZQ 272314Z AUTO 28009KT 10SM OVC034 M07/M11 A3024 RMK AO2 T10751106
Loading
Personal Weather Stations






























Interactive Weather Map New forecast layout! Learn more

10-Day Weather Forecast

Advertisements
Track Severe Weather on mobile